Time;durP1;ratioP1;P1;durP2;ratioP2;P2;SDS_P1;SDS_P2;PMS_P1;PMS_P2;Temp;Humidity;BMP_temperature;BMP_pressure;BME280_temperature;BME280_humidity;BME280_pressure;Samples;Min_cycle;Max_cycle;Signal;HPM_P1;HPM_P2
2023/07/12 00:00:30;;;;;;;12.63;10.23;;;;;;;19.22;97.13;97420.66;6236896;28;20284;-34
2023/07/12 00:03:32;;;;;;;14.17;10.70;;;;;;;19.23;97.25;97426.84;6254312;28;20234;-35
2023/07/12 00:06:37;;;;;;;12.30;10.50;;;;;;;19.19;97.45;97428.53;6253339;28;20234;-35
2023/07/12 00:09:41;;;;;;;11.97;10.47;;;;;;;19.17;97.70;97422.66;6249932;28;20236;-35
2023/07/12 00:12:44;;;;;;;14.37;11.13;;;;;;;19.14;98.62;97429.47;6253179;28;20223;-35
2023/07/12 00:15:48;;;;;;;11.13;10.03;;;;;;;19.10;98.40;97433.06;6252933;28;20226;-34
2023/07/12 00:18:50;;;;;;;11.70;10.53;;;;;;;19.11;98.83;97430.06;6235474;28;20356;-34
2023/07/12 00:21:55;;;;;;;12.50;11.17;;;;;;;19.10;98.56;97423.06;6254440;28;20688;-35
2023/07/12 00:24:57;;;;;;;12.03;10.83;;;;;;;19.05;98.84;97406.97;6254334;28;20700;-36
2023/07/12 00:28:01;;;;;;;14.63;10.83;;;;;;;19.11;98.72;97421.16;6252990;28;20243;-35
2023/07/12 00:31:03;;;;;;;13.23;11.93;;;;;;;19.09;99.23;97432.25;6229668;28;20325;-35
2023/07/12 00:34:07;;;;;;;13.40;11.97;;;;;;;19.08;99.06;97420.66;6254101;28;20234;-35
2023/07/12 00:37:18;;;;;;;12.87;11.53;;;;;;;19.09;99.24;97410.66;6253692;28;20245;-35
2023/07/12 00:40:49;;;;;;;12.17;10.97;;;;;;;19.08;99.23;97398.28;6253184;28;20227;-34
2023/07/12 00:44:01;;;;;;;12.87;10.87;;;;;;;19.07;98.69;97389.38;6249779;28;20281;-34
2023/07/12 00:47:04;;;;;;;11.93;10.77;;;;;;;18.91;99.50;97363.00;6253188;28;20231;-34
2023/07/12 00:50:17;;;;;;;11.67;10.63;;;;;;;18.98;99.45;97377.69;6251226;28;20234;-34
2023/07/12 00:53:23;;;;;;;15.63;12.10;;;;;;;18.93;99.51;97367.00;6230364;28;20223;-34
2023/07/12 00:56:26;;;;;;;12.53;11.33;;;;;;;18.92;99.49;97359.22;6251625;28;20764;-34
2023/07/12 00:59:30;;;;;;;14.77;12.23;;;;;;;18.75;100.00;97332.84;6249016;28;20235;-34
2023/07/12 01:02:32;;;;;;;13.10;11.60;;;;;;;18.90;99.70;97364.09;6253811;28;20235;-34
2023/07/12 01:05:36;;;;;;;13.40;11.53;;;;;;;18.90;100.00;97366.81;6248478;28;20376;-34
2023/07/12 01:08:41;;;;;;;17.40;11.70;;;;;;;18.88;99.90;97366.31;6253535;28;20227;-35
2023/07/12 01:11:45;;;;;;;12.53;11.33;;;;;;;18.87;100.00;97368.22;6251600;28;20228;-34
2023/07/12 01:14:47;;;;;;;13.43;12.00;;;;;;;18.85;100.00;97373.13;6253092;28;20601;-35
2023/07/12 01:17:49;;;;;;;12.83;11.20;;;;;;;18.81;100.00;97367.50;6252502;28;20234;-35
2023/07/12 01:21:24;;;;;;;13.13;11.83;;;;;;;18.81;100.00;97375.59;6252169;28;20233;-34
2023/07/12 01:24:30;;;;;;;12.87;11.57;;;;;;;18.81;100.00;97397.19;6250680;28;20396;-35
2023/07/12 01:27:32;;;;;;;13.23;12.03;;;;;;;18.83;100.00;97501.38;6248338;28;20227;-35
2023/07/12 01:30:35;;;;;;;15.13;13.33;;;;;;;19.72;100.00;97746.84;6234580;28;20237;-35
2023/07/12 01:33:38;;;;;;;14.90;9.93;;;;;;;19.90;89.70;97575.63;6254057;28;20300;-35
2023/07/12 01:36:43;;;;;;;12.13;8.07;;;;;;;21.26;79.26;97647.56;6234527;28;20571;-35
2023/07/12 01:39:45;;;;;;;12.23;7.93;;;;;;;21.72;76.81;97655.25;6253055;28;20728;-35
2023/07/12 01:42:47;;;;;;;12.97;7.13;;;;;;;21.59;77.61;97642.63;6252931;28;20283;-35
2023/07/12 01:45:49;;;;;;;10.33;6.10;;;;;;;21.76;72.57;97641.88;6248530;28;20214;-36
2023/07/12 01:48:52;;;;;;;10.30;4.60;;;;;;;21.95;70.15;97622.59;6252655;28;20226;-35
2023/07/12 01:51:54;;;;;;;10.57;4.00;;;;;;;22.03;68.59;97616.41;6230021;28;20303;-36
2023/07/12 01:54:57;;;;;;;9.50;4.33;;;;;;;21.98;70.03;97620.06;6253366;28;20584;-36
2023/07/12 01:58:00;;;;;;;13.03;4.30;;;;;;;21.88;69.61;97594.03;6252860;28;20238;-36
2023/07/12 02:01:02;;;;;;;10.63;3.30;;;;;;;22.09;66.78;97613.22;6233570;28;20231;-35
2023/07/12 02:04:08;;;;;;;17.87;9.27;;;;;;;22.10;65.91;97576.81;6258087;28;20320;-36
2023/07/12 02:07:11;;;;;;;7.30;3.37;;;;;;;22.01;66.52;97583.34;6232146;28;20257;-36
2023/07/12 02:10:17;;;;;;;9.13;3.00;;;;;;;22.09;65.57;97602.34;6251845;28;20329;-36
2023/07/12 02:13:21;;;;;;;9.33;3.60;;;;;;;22.28;63.67;97588.50;6245968;28;20603;-35
2023/07/12 02:16:24;;;;;;;8.87;3.00;;;;;;;22.07;65.19;97590.25;6251111;28;20227;-36
2023/07/12 02:19:27;;;;;;;9.07;2.47;;;;;;;22.04;65.02;97609.84;6249703;28;20230;-36
2023/07/12 02:22:30;;;;;;;5.20;2.13;;;;;;;22.05;64.41;97603.31;6251783;28;20310;-35
2023/07/12 02:25:33;;;;;;;5.85;2.00;;;;;;;22.35;62.05;97601.59;6237589;28;20237;-36
2023/07/12 02:28:39;;;;;;;11.27;3.90;;;;;;;22.19;63.38;97603.97;6239010;28;20253;-36
2023/07/12 02:31:42;;;;;;;7.10;2.00;;;;;;;22.29;61.23;97573.00;6256034;28;20242;-35
2023/07/12 02:34:44;;;;;;;7.60;1.90;;;;;;;22.40;61.26;97583.22;6256185;28;20231;-35
2023/07/12 02:37:47;;;;;;;5.57;1.70;;;;;;;22.19;62.04;97533.44;6256216;28;20957;-35
2023/07/12 02:40:49;;;;;;;6.50;1.77;;;;;;;21.95;62.62;97533.88;6256030;28;20247;-35
2023/07/12 02:43:51;;;;;;;3.37;1.30;;;;;;;22.37;61.20;97548.59;6251694;28;20388;-35
2023/07/12 02:46:55;;;;;;;6.03;1.30;;;;;;;22.28;60.78;97557.84;6252920;28;21757;-35
2023/07/12 02:50:03;;;;;;;3.07;1.60;;;;;;;22.01;64.51;97556.22;6257741;28;20644;-35
2023/07/12 02:53:16;;;;;;;2.80;1.30;;;;;;;21.82;63.59;97540.25;6253408;28;20227;-35
2023/07/12 02:56:19;;;;;;;4.03;1.30;;;;;;;21.62;64.41;97520.81;6256943;28;20269;-35
2023/07/12 02:59:23;;;;;;;4.73;1.73;;;;;;;21.77;63.85;97549.38;6256311;28;20364;-36
2023/07/12 03:02:30;;;;;;;4.93;1.43;;;;;;;21.77;63.49;97554.78;6255008;28;20247;-35
2023/07/12 03:05:37;;;;;;;7.17;1.70;;;;;;;21.95;62.22;97562.94;6255574;28;20227;-35
2023/07/12 03:08:40;;;;;;;6.37;1.50;;;;;;;21.94;62.79;97550.50;6254571;28;20246;-36
2023/07/12 03:11:50;;;;;;;2.73;1.30;;;;;;;21.80;63.08;97537.88;6255897;28;20230;-36
2023/07/12 03:14:55;;;;;;;5.30;1.17;;;;;;;21.77;62.94;97527.69;6254467;28;20245;-35
2023/07/12 03:17:58;;;;;;;3.13;1.30;;;;;;;21.76;63.42;97528.78;6255800;28;20223;-36
2023/07/12 03:21:04;;;;;;;3.30;1.13;;;;;;;21.68;63.29;97509.81;6253434;28;20234;-36
2023/07/12 03:24:09;;;;;;;2.70;1.07;;;;;;;21.61;64.34;97496.72;6229227;28;20273;-36
2023/07/12 03:27:16;;;;;;;3.40;1.30;;;;;;;21.53;64.23;97478.53;6241334;28;20226;-36
2023/07/12 03:30:19;;;;;;;2.13;1.40;;;;;;;21.52;63.36;97464.16;6254332;28;20223;-35
2023/07/12 03:33:21;;;;;;;3.63;1.40;;;;;;;21.59;63.31;97467.22;6255893;28;20243;-35
2023/07/12 03:36:28;;;;;;;3.80;1.27;;;;;;;21.54;64.21;97472.00;6251881;28;20234;-35
2023/07/12 03:39:30;;;;;;;2.93;1.20;;;;;;;21.40;65.53;97466.72;6254443;28;20280;-35
2023/07/12 03:42:33;;;;;;;0.97;0.77;;;;;;;21.22;66.31;97441.47;6253653;28;20235;-35
2023/07/12 03:45:35;;;;;;;3.53;1.33;;;;;;;21.22;66.95;97435.25;6230161;28;20239;-35
2023/07/12 03:48:37;;;;;;;3.23;1.10;;;;;;;21.19;67.47;97417.75;6255300;28;20313;-35
2023/07/12 03:51:39;;;;;;;4.53;1.33;;;;;;;21.17;67.78;97414.53;6249592;28;20358;-35
2023/07/12 03:54:41;;;;;;;4.43;1.20;;;;;;;21.12;69.75;97439.06;6254278;28;20235;-35
2023/07/12 03:57:43;;;;;;;3.50;1.40;;;;;;;21.23;64.84;97432.25;6254464;28;20239;-35
2023/07/12 04:00:48;;;;;;;2.23;1.00;;;;;;;21.77;61.43;97440.09;6253875;28;20593;-46
2023/07/12 04:03:50;;;;;;;2.13;1.10;;;;;;;21.96;60.29;97435.13;6253892;28;20239;-47
2023/07/12 04:06:53;;;;;;;2.57;0.93;;;;;;;22.13;60.30;97424.28;6249892;28;20234;-48
2023/07/12 04:09:55;;;;;;;1.93;1.20;;;;;;;22.40;57.04;97403.28;6253231;28;20234;-47
2023/07/12 04:12:57;;;;;;;0.90;0.80;;;;;;;22.37;57.51;97410.16;6254074;28;20712;-47
2023/07/12 04:16:01;;;;;;;1.63;1.20;;;;;;;22.47;57.54;97430.72;6253607;28;20943;-49
2023/07/12 04:19:03;;;;;;;1.97;1.30;;;;;;;22.28;59.34;97392.31;6253619;28;20227;-48
2023/07/12 04:22:06;;;;;;;1.47;1.03;;;;;;;22.29;57.59;97378.41;6252663;28;20235;-47
2023/07/12 04:25:10;;;;;;;1.50;0.90;;;;;;;22.36;59.17;97392.28;6254133;28;20893;-47
2023/07/12 04:28:12;;;;;;;1.90;0.93;;;;;;;22.19;60.10;97376.06;6245424;28;20242;-48
2023/07/12 04:31:20;;;;;;;1.13;0.73;;;;;;;22.16;60.50;97382.13;6233916;28;20983;-47
2023/07/12 04:34:26;;;;;;;3.90;1.13;;;;;;;21.99;62.25;97393.00;6250386;28;20227;-48
2023/07/12 04:37:51;;;;;;;2.90;1.17;;;;;;;21.66;65.11;97363.72;6249374;28;20231;-48
2023/07/12 04:40:54;;;;;;;1.17;0.90;;;;;;;21.66;64.78;97379.19;6251762;28;20246;-47
2023/07/12 04:43:56;;;;;;;1.20;0.90;;;;;;;21.58;66.29;97388.94;6252218;28;20262;-48
2023/07/12 04:46:59;;;;;;;1.67;0.80;;;;;;;21.50;65.66;97387.81;6251541;28;20258;-47
2023/07/12 04:50:03;;;;;;;1.40;0.90;;;;;;;21.48;65.82;97386.53;6251295;28;20241;-47
2023/07/12 04:53:05;;;;;;;1.23;0.70;;;;;;;21.47;66.30;97376.78;6249466;28;20369;-49
2023/07/12 04:56:07;;;;;;;2.03;0.80;;;;;;;21.46;67.29;97389.56;6250752;28;20589;-48
2023/07/12 04:59:10;;;;;;;1.30;0.80;;;;;;;21.43;66.91;97408.38;6252574;28;20238;-48
2023/07/12 05:02:12;;;;;;;0.70;0.67;;;;;;;21.37;67.31;97421.28;6250898;28;20234;-48
2023/07/12 05:05:16;;;;;;;1.13;0.90;;;;;;;21.33;68.45;97423.84;6251760;28;20770;-48
2023/07/12 05:08:21;;;;;;;2.10;1.00;;;;;;;21.27;69.64;97424.25;6231296;28;20716;-48
2023/07/12 05:11:26;;;;;;;1.77;0.93;;;;;;;21.23;70.80;97434.13;6249868;28;20276;-47
2023/07/12 05:14:28;;;;;;;2.57;1.10;;;;;;;21.25;70.62;97448.97;6251004;28;20289;-50
2023/07/12 05:17:34;;;;;;;1.47;0.80;;;;;;;21.24;72.84;97450.09;6254053;28;20231;-48
2023/07/12 05:20:40;;;;;;;1.57;1.00;;;;;;;21.27;72.58;97443.22;6251747;28;20287;-48
2023/07/12 05:23:42;;;;;;;1.30;1.03;;;;;;;21.34;72.40;97438.97;6253236;28;20231;-36
2023/07/12 05:26:44;;;;;;;2.47;1.00;;;;;;;21.43;72.22;97440.88;6251977;28;20755;-36
2023/07/12 05:29:47;;;;;;;2.13;1.10;;;;;;;21.52;71.80;97430.84;6251069;28;20231;-36
2023/07/12 05:32:49;;;;;;;1.40;0.80;;;;;;;21.46;72.31;97424.00;6252637;28;20727;-36
2023/07/12 05:35:51;;;;;;;1.80;1.20;;;;;;;21.66;71.31;97441.53;6248170;28;20270;-36
2023/07/12 05:38:54;;;;;;;1.93;1.00;;;;;;;21.66;71.62;97417.94;6247325;28;20239;-36
2023/07/12 05:41:57;;;;;;;1.33;0.97;;;;;;;21.69;72.08;97420.00;6251699;28;20238;-42
2023/07/12 05:45:02;;;;;;;2.20;1.10;;;;;;;21.74;72.54;97425.28;6251072;28;20224;-37
2023/07/12 05:48:04;;;;;;;1.47;0.73;;;;;;;21.63;74.14;97399.59;6250891;28;20250;-37
2023/07/12 05:51:08;;;;;;;1.30;0.87;;;;;;;21.77;73.96;97418.38;6247472;28;20705;-36
2023/07/12 05:54:14;;;;;;;1.13;0.87;;;;;;;21.81;74.12;97422.84;6247202;28;20924;-37
2023/07/12 05:57:17;;;;;;;1.20;1.10;;;;;;;21.82;75.81;97427.19;6257083;28;20203;-37
2023/07/12 06:00:20;;;;;;;3.27;1.00;;;;;;;21.85;75.45;97433.88;6258492;28;20221;-37
2023/07/12 06:03:23;;;;;;;1.87;1.10;;;;;;;21.84;75.89;97429.56;6258610;28;20312;-36
2023/07/12 06:06:30;;;;;;;1.87;1.03;;;;;;;21.80;76.11;97429.41;6235543;28;20314;-36
2023/07/12 06:09:33;;;;;;;1.63;1.00;;;;;;;21.72;76.57;97413.13;6255452;28;20292;-37
2023/07/12 06:12:35;;;;;;;2.10;1.10;;;;;;;21.68;76.29;97417.63;6254256;28;20588;-36
2023/07/12 06:15:38;;;;;;;1.93;0.70;;;;;;;21.62;76.20;97422.38;6234115;28;20306;-37
2023/07/12 06:18:41;;;;;;;2.43;1.00;;;;;;;21.62;75.70;97431.34;6254635;28;20229;-37
2023/07/12 06:21:43;;;;;;;0.90;0.70;;;;;;;21.62;76.08;97436.78;6254960;28;20238;-38
2023/07/12 06:24:47;;;;;;;1.77;0.83;;;;;;;21.71;76.19;97436.75;6255836;28;20320;-37
2023/07/12 06:27:51;;;;;;;3.47;1.13;;;;;;;21.78;76.35;97439.00;6222096;28;20901;-35
2023/07/12 06:30:54;;;;;;;3.67;1.60;;;;;;;21.76;75.98;97439.28;6256478;28;20222;-37
2023/07/12 06:34:03;;;;;;;1.57;1.20;;;;;;;21.87;75.66;97442.47;6237129;28;20226;-37
2023/07/12 06:37:08;;;;;;;2.23;1.10;;;;;;;21.94;74.73;97456.34;6255702;28;20266;-37
2023/07/12 06:40:11;;;;;;;1.93;0.83;;;;;;;22.00;75.72;97465.13;6255993;28;20242;-37
2023/07/12 06:43:13;;;;;;;1.87;1.10;;;;;;;22.10;75.91;97465.56;6255424;28;20618;-41
2023/07/12 06:46:17;;;;;;;1.13;1.00;;;;;;;22.02;76.05;97433.84;6237820;28;20231;-36
2023/07/12 06:49:21;;;;;;;4.23;1.20;;;;;;;22.26;75.07;97468.59;6253846;28;20266;-37
2023/07/12 06:52:25;;;;;;;5.10;1.37;;;;;;;22.41;72.60;97470.00;6237853;28;20227;-37
2023/07/12 06:55:27;;;;;;;2.57;1.10;;;;;;;22.61;72.48;97482.06;6255657;28;20766;-36
2023/07/12 06:58:29;;;;;;;2.60;1.43;;;;;;;22.78;72.46;97467.66;6255221;28;20235;-37
2023/07/12 07:01:33;;;;;;;2.35;1.27;;;;;;;22.95;71.95;97473.00;6252365;28;20239;-38
2023/07/12 07:04:36;;;;;;;2.60;1.40;;;;;;;23.13;71.55;97473.72;6237395;28;20231;-37
2023/07/12 07:07:38;;;;;;;3.85;1.33;;;;;;;23.11;71.44;97476.00;6253969;28;20272;-36
2023/07/12 07:10:40;;;;;;;13.60;4.50;;;;;;;22.98;72.60;97463.44;6236216;28;20707;-37
2023/07/12 07:13:43;;;;;;;12.18;4.78;;;;;;;22.91;72.03;97459.31;6254199;28;20317;-37
2023/07/12 07:16:46;;;;;;;8.43;4.15;;;;;;;22.83;72.59;97440.31;6255466;28;20604;-37
2023/07/12 07:19:49;;;;;;;4.93;2.08;;;;;;;23.02;72.31;97470.59;6254376;28;20364;-37
2023/07/12 07:22:52;;;;;;;2.08;1.40;;;;;;;23.08;70.12;97480.16;6253869;28;20788;-37
2023/07/12 07:26:00;;;;;;;3.10;1.42;;;;;;;23.24;69.90;97480.38;6254627;28;20230;-42
2023/07/12 07:29:02;;;;;;;2.35;1.55;;;;;;;23.38;69.00;97489.06;6254421;28;20361;-37
2023/07/12 07:32:05;;;;;;;2.13;1.30;;;;;;;23.54;69.86;97483.84;6255789;28;20266;-37
2023/07/12 07:35:11;;;;;;;2.00;1.38;;;;;;;23.70;68.96;97478.66;6250959;28;20231;-37
2023/07/12 07:38:14;;;;;;;4.47;1.58;;;;;;;23.75;67.85;97461.34;6222808;28;20216;-38
2023/07/12 07:41:16;;;;;;;3.38;1.67;;;;;;;23.85;67.41;97461.72;6235892;28;20227;-38
2023/07/12 07:44:18;;;;;;;4.30;1.73;;;;;;;24.03;66.95;97458.84;6233920;28;20227;-37
2023/07/12 07:47:21;;;;;;;2.72;1.50;;;;;;;24.13;66.21;97461.13;6253241;28;20226;-37
2023/07/12 07:50:23;;;;;;;3.55;1.80;;;;;;;24.25;64.59;97458.47;6252580;28;20235;-37
2023/07/12 07:53:25;;;;;;;6.30;1.48;;;;;;;24.35;63.92;97458.03;6253645;28;20361;-38
2023/07/12 07:56:28;;;;;;;2.75;1.73;;;;;;;24.39;64.43;97461.72;6252783;28;20280;-37
2023/07/12 07:59:30;;;;;;;2.25;1.63;;;;;;;24.42;63.32;97465.66;6252982;28;20227;-38
2023/07/12 08:02:32;;;;;;;4.18;1.90;;;;;;;24.50;61.27;97459.34;6248806;28;20759;-37
2023/07/12 08:05:35;;;;;;;3.60;1.85;;;;;;;24.60;62.85;97453.44;6253065;28;20257;-37
2023/07/12 08:08:37;;;;;;;5.90;1.92;;;;;;;24.74;58.04;97447.69;6253440;28;20669;-37
2023/07/12 08:11:40;;;;;;;7.38;2.05;;;;;;;24.79;59.11;97433.03;6254298;28;20623;-41
2023/07/12 08:14:44;;;;;;;4.93;1.95;;;;;;;25.10;58.59;97440.66;6236330;28;20242;-37
2023/07/12 08:17:46;;;;;;;2.55;1.55;;;;;;;25.10;61.20;97432.47;6253396;28;20296;-37
2023/07/12 08:20:51;;;;;;;2.95;1.73;;;;;;;25.12;61.73;97430.19;6253319;28;20235;-37
2023/07/12 08:23:54;;;;;;;2.55;1.77;;;;;;;25.29;60.31;97438.13;6233465;28;20234;-42
2023/07/12 08:26:56;;;;;;;3.40;1.85;;;;;;;25.49;60.15;97444.56;6252050;28;20365;-36
2023/07/12 08:30:10;;;;;;;3.47;1.95;;;;;;;25.58;56.08;97444.44;6231073;28;20715;-37
2023/07/12 08:33:13;;;;;;;3.65;1.95;;;;;;;25.77;53.74;97450.09;6249935;28;20657;-36
2023/07/12 08:36:16;;;;;;;7.43;2.38;;;;;;;25.91;54.76;97446.94;6251872;28;20883;-37
2023/07/12 08:39:18;;;;;;;4.53;2.00;;;;;;;26.03;53.88;97457.03;6253681;28;20585;-37
2023/07/12 08:42:31;;;;;;;18.70;3.20;;;;;;;26.11;52.77;97459.59;6248600;28;26429;-37
2023/07/12 08:45:35;;;;;;;5.85;2.03;;;;;;;26.29;51.29;97454.59;6252338;28;20254;-38
2023/07/12 08:48:37;;;;;;;5.38;2.22;;;;;;;26.51;50.81;97466.13;6253503;28;20723;-38
2023/07/12 08:51:40;;;;;;;3.10;2.28;;;;;;;26.62;52.75;97464.47;6250772;28;20356;-37
2023/07/12 08:54:47;;;;;;;8.57;2.20;;;;;;;26.60;51.58;97456.63;6250622;28;20230;-36
2023/07/12 08:58:19;;;;;;;2.08;1.73;;;;;;;26.58;54.08;97479.97;6248150;28;20226;-36
2023/07/12 09:01:59;;;;;;;2.47;2.03;;;;;;;26.51;58.71;97477.06;6251869;28;20631;-38
2023/07/12 09:05:14;;;;;;;3.28;2.05;;;;;;;26.44;58.92;97481.16;6182830;28;20229;-37
2023/07/12 09:08:35;;;;;;;7.05;2.17;;;;;;;26.42;59.61;97479.91;6182973;28;20290;-38
2023/07/12 09:11:37;;;;;;;4.07;2.08;;;;;;;26.42;58.94;97483.47;6200381;28;20233;-37
2023/07/12 09:14:39;;;;;;;7.63;2.10;;;;;;;26.61;55.13;97492.94;6201873;28;20283;-37
2023/07/12 09:17:44;;;;;;;2.58;2.05;;;;;;;26.55;55.98;97465.09;6199769;28;20619;-37
2023/07/12 09:20:50;;;;;;;5.22;2.03;;;;;;;26.83;52.09;97488.78;6197073;28;20895;-36
2023/07/12 09:23:59;;;;;;;3.97;2.25;;;;;;;27.01;51.60;97488.06;6199605;28;20240;-37
2023/07/12 09:27:05;;;;;;;4.22;1.80;;;;;;;27.04;51.83;97485.78;6198955;28;20601;-37
2023/07/12 09:30:08;;;;;;;2.70;1.83;;;;;;;27.07;52.89;97488.59;6200790;28;20304;-36
2023/07/12 09:33:25;;;;;;;4.53;2.33;;;;;;;27.02;53.98;97486.94;6197615;28;20686;-37
2023/07/12 09:36:27;;;;;;;2.30;1.63;;;;;;;27.12;51.76;97487.56;6199544;28;20307;-48
2023/07/12 09:39:30;;;;;;;3.35;1.73;;;;;;;27.23;51.50;97481.19;6238556;28;20230;-49
2023/07/12 09:42:32;;;;;;;3.40;2.00;;;;;;;27.34;50.32;97470.50;6251648;28;20384;-47
2023/07/12 09:45:37;;;;;;;3.05;1.70;;;;;;;27.44;51.85;97467.22;6251634;28;20225;-47
2023/07/12 09:48:56;;;;;;;2.92;1.77;;;;;;;27.52;53.06;97479.09;6248546;28;20239;-47
2023/07/12 09:52:22;;;;;;;2.85;1.70;;;;;;;27.43;54.42;97473.81;6247741;28;20235;-47
2023/07/12 09:55:52;;;;;;;8.05;1.95;;;;;;;27.34;55.63;97469.69;6236339;28;20246;-46
2023/07/12 09:59:03;;;;;;;2.75;1.77;;;;;;;27.39;54.04;97477.63;6248621;28;20230;-46
2023/07/12 10:02:27;;;;;;;4.28;1.80;;;;;;;27.39;54.41;97470.22;6251937;28;20340;-47
2023/07/12 10:05:31;;;;;;;3.05;1.70;;;;;;;27.38;55.39;97479.56;6246829;28;20216;-50
2023/07/12 10:09:05;;;;;;;6.90;2.55;;;;;;;27.23;52.15;97480.41;6251269;28;20231;-51
2023/07/12 10:12:14;;;;;;;2.40;1.75;;;;;;;27.35;50.07;97493.97;6233672;28;20612;-50
2023/07/12 10:15:16;;;;;;;1.70;1.60;;;;;;;27.34;51.17;97480.63;6252114;28;20212;-48
2023/07/12 10:18:24;;;;;;;1.80;1.65;;;;;;;27.41;52.42;97476.13;6251517;28;20220;-47
2023/07/12 10:21:27;;;;;;;2.58;1.58;;;;;;;27.47;53.23;97485.63;6249162;28;20272;-48
2023/07/12 10:24:42;;;;;;;1.48;1.33;;;;;;;27.44;48.06;97483.63;6251620;28;20223;-48
2023/07/12 10:27:49;;;;;;;2.35;1.60;;;;;;;27.41;54.01;97469.88;6250434;28;20289;-50
2023/07/12 10:30:54;;;;;;;3.25;1.73;;;;;;;27.32;52.55;97483.72;6234800;28;20223;-50
2023/07/12 10:34:24;;;;;;;1.60;1.23;;;;;;;27.32;47.24;97448.19;6234539;28;20268;-50
2023/07/12 10:37:37;;;;;;;3.60;1.83;;;;;;;27.57;51.51;97478.81;6248391;28;20238;-47
2023/07/12 10:41:05;;;;;;;3.40;1.17;;;;;;;27.77;47.01;97472.22;6250230;28;20237;-46
2023/07/12 10:44:18;;;;;;;1.98;1.30;;;;;;;27.89;48.35;97459.56;6246270;28;20607;-50
2023/07/12 10:47:27;;;;;;;4.40;1.20;;;;;;;28.03;43.87;97463.38;6251656;28;20227;-51
2023/07/12 10:50:33;;;;;;;3.22;1.55;;;;;;;28.41;40.12;97461.75;6253461;28;20318;-47
2023/07/12 10:53:50;;;;;;;1.85;1.23;;;;;;;28.35;40.88;97452.25;6255273;28;20235;-48
2023/07/12 10:56:54;;;;;;;2.20;0.98;;;;;;;28.44;42.59;97465.72;6252986;28;20219;-51
2023/07/12 11:00:20;;;;;;;4.88;1.55;;;;;;;28.71;38.19;97439.94;6260268;28;20238;-46
2023/07/12 11:03:45;;;;;;;3.67;1.33;;;;;;;28.65;43.00;97448.84;6256011;28;20310;-49
2023/07/12 11:07:21;;;;;;;3.05;1.63;;;;;;;28.72;42.76;97477.19;6227541;28;20223;-48
2023/07/12 11:10:26;;;;;;;2.95;1.25;;;;;;;28.96;41.22;97475.22;6245968;28;20237;-50
2023/07/12 11:13:44;;;;;;;4.00;1.80;;;;;;;29.26;38.49;97475.28;6253923;28;20227;-47
2023/07/12 11:17:09;;;;;;;2.88;1.55;;;;;;;29.34;38.65;97471.50;6251896;28;20242;-48
2023/07/12 11:20:25;;;;;;;2.25;1.50;;;;;;;29.21;38.63;97443.50;6254621;28;20227;-47
2023/07/12 11:23:45;;;;;;;2.75;1.45;;;;;;;29.38;38.84;97461.38;6251736;28;20223;-50
2023/07/12 11:26:57;;;;;;;2.88;1.48;;;;;;;29.39;37.57;97460.19;6253314;28;20238;-51
2023/07/12 11:30:14;;;;;;;3.60;1.48;;;;;;;28.93;40.00;97404.66;6253044;28;20231;-46
2023/07/12 11:33:29;;;;;;;1.75;1.40;;;;;;;29.38;39.26;97488.03;6251721;28;20220;-51
2023/07/12 11:36:35;;;;;;;2.97;1.88;;;;;;;29.01;40.34;97447.50;6251940;28;20916;-49
2023/07/12 11:39:37;;;;;;;3.05;1.33;;;;;;;29.15;38.98;97474.34;6254971;28;20219;-46
2023/07/12 11:42:39;;;;;;;3.10;1.70;;;;;;;29.25;36.24;97473.72;6253086;28;20268;-47
2023/07/12 11:45:41;;;;;;;3.15;1.45;;;;;;;29.10;40.40;97464.47;6254096;28;20235;-52
2023/07/12 11:48:50;;;;;;;3.80;1.80;;;;;;;29.04;40.01;97468.72;6254000;28;20238;-50
2023/07/12 11:51:56;;;;;;;3.00;1.80;;;;;;;28.98;40.59;97451.00;6252591;28;20326;-47
2023/07/12 11:55:04;;;;;;;5.63;2.05;;;;;;;28.96;38.82;97454.06;6250919;28;20259;-48
2023/07/12 11:58:21;;;;;;;7.15;2.17;;;;;;;29.03;37.87;97459.69;6254441;28;20224;-46
2023/07/12 12:01:23;;;;;;;2.65;1.70;;;;;;;28.65;38.80;97427.72;6253205;28;20232;-48
2023/07/12 12:04:31;;;;;;;6.60;2.17;;;;;;;28.91;38.96;97428.88;6254037;28;20667;-47
2023/07/12 12:07:39;;;;;;;9.43;2.03;;;;;;;28.91;38.99;97415.19;6242793;28;20249;-47
2023/07/12 12:10:41;;;;;;;3.40;1.92;;;;;;;28.86;40.59;97426.47;6248121;28;20736;-53
2023/07/12 12:13:52;;;;;;;4.15;2.10;;;;;;;28.91;39.58;97426.16;6254173;28;20258;-50
2023/07/12 12:16:57;;;;;;;4.38;2.13;;;;;;;28.79;40.21;97432.63;6251296;28;20227;-57
2023/07/12 12:20:18;;;;;;;2.58;1.67;;;;;;;28.80;38.71;97388.38;6254326;28;20227;-55
2023/07/12 12:23:30;;;;;;;5.20;1.90;;;;;;;29.02;41.87;97425.19;6253554;28;20332;-53
2023/07/12 12:26:34;;;;;;;4.55;1.90;;;;;;;28.92;42.88;97412.09;6253880;28;20708;-53
2023/07/12 12:29:40;;;;;;;4.30;2.13;;;;;;;29.15;43.41;97411.25;6253241;28;20258;-54
2023/07/12 12:33:05;;;;;;;3.10;2.05;;;;;;;29.35;41.10;97420.16;6258664;28;20724;-54
2023/07/12 12:36:26;;;;;;;3.38;2.00;;;;;;;29.43;42.92;97389.69;6259063;28;20243;-53
2023/07/12 12:39:28;;;;;;;2.63;1.80;;;;;;;29.81;41.35;97404.31;6249374;28;20234;-54
2023/07/12 12:42:31;;;;;;;4.18;2.20;;;;;;;29.79;37.61;97384.66;6250959;28;20654;-54
2023/07/12 12:45:36;;;;;;;4.43;2.22;;;;;;;29.95;39.23;97398.97;6253610;28;20364;-55
2023/07/12 12:48:38;;;;;;;3.17;1.70;;;;;;;29.95;40.54;97393.47;6254129;28;20748;-54
2023/07/12 12:52:24;;;;;;;3.13;2.00;;;;;;;30.08;36.80;97397.50;6221219;28;20228;-54
2023/07/12 12:55:29;;;;;;;4.22;1.90;;;;;;;29.95;38.68;97398.16;6224686;28;20238;-55
2023/07/12 12:58:51;;;;;;;3.95;2.00;;;;;;;30.01;37.20;97391.97;6223735;28;20922;-54
2023/07/12 13:01:56;;;;;;;3.80;2.42;;;;;;;29.83;38.19;97385.47;6220846;28;20239;-55
2023/07/12 13:05:01;;;;;;;6.43;2.38;;;;;;;29.66;37.09;97369.63;6218427;28;20223;-54
2023/07/12 13:08:17;;;;;;;4.75;2.17;;;;;;;29.69;36.93;97377.09;6221735;28;20220;-54
2023/07/12 13:11:23;;;;;;;6.18;2.45;;;;;;;29.65;37.12;97371.53;6252107;28;20234;-54
2023/07/12 13:14:45;;;;;;;4.45;2.35;;;;;;;29.58;37.95;97368.72;6251344;28;20242;-54
2023/07/12 13:17:51;;;;;;;6.57;2.47;;;;;;;29.38;39.32;97370.03;6250733;28;20318;-54
2023/07/12 13:21:22;;;;;;;5.20;2.25;;;;;;;29.43;39.23;97380.66;6251910;28;20306;-54
2023/07/12 13:24:24;;;;;;;5.15;2.33;;;;;;;29.37;39.58;97379.41;6252528;28;20243;-54
2023/07/12 13:27:34;;;;;;;4.50;2.40;;;;;;;29.27;39.39;97378.13;6252284;28;20230;-54
2023/07/12 13:30:38;;;;;;;6.03;2.20;;;;;;;29.30;41.57;97393.81;6252526;28;20330;-52
2023/07/12 13:33:40;;;;;;;5.38;2.50;;;;;;;29.37;39.44;97390.41;6252951;28;20261;-54
2023/07/12 13:36:45;;;;;;;6.20;2.55;;;;;;;29.43;41.85;97400.66;6251793;28;20222;-54
2023/07/12 13:39:47;;;;;;;4.97;2.50;;;;;;;29.38;39.85;97406.47;6257348;28;20838;-54
2023/07/12 13:42:50;;;;;;;8.93;2.60;;;;;;;29.41;40.51;97408.50;6252030;28;20239;-54
2023/07/12 13:45:55;;;;;;;4.55;2.30;;;;;;;29.46;40.69;97410.91;6253096;28;20241;-54
2023/07/12 13:48:57;;;;;;;5.35;2.72;;;;;;;29.34;42.84;97408.38;6247536;28;20239;-54
2023/07/12 13:51:59;;;;;;;5.65;2.72;;;;;;;29.42;44.01;97421.06;6249752;28;20721;-53
2023/07/12 13:55:02;;;;;;;6.10;2.83;;;;;;;29.28;44.49;97416.16;6252518;28;20242;-53
2023/07/12 13:58:05;;;;;;;7.32;2.92;;;;;;;29.11;43.36;97396.69;6251266;28;20235;-54
2023/07/12 14:01:15;;;;;;;4.82;2.80;;;;;;;29.20;42.78;97413.69;6251052;28;20250;-53
2023/07/12 14:04:22;;;;;;;4.35;2.63;;;;;;;29.21;41.48;97407.84;6247843;28;20238;-53
2023/07/12 14:07:30;;;;;;;4.90;3.20;;;;;;;29.04;43.21;97411.91;6251601;28;20235;-54
2023/07/12 14:10:35;;;;;;;6.05;2.92;;;;;;;29.01;43.10;97404.41;6252834;28;20235;-54
2023/07/12 14:13:38;;;;;;;4.05;2.60;;;;;;;28.98;42.91;97412.59;6251856;28;20234;-54
2023/07/12 14:16:40;;;;;;;4.93;2.53;;;;;;;29.08;45.21;97427.63;6251537;28;20231;-54
2023/07/12 14:19:50;;;;;;;6.65;2.65;;;;;;;29.01;47.63;97418.13;6253448;28;20223;-53
2023/07/12 14:22:53;;;;;;;5.57;2.30;;;;;;;29.01;49.39;97406.34;6256341;28;20235;-52
2023/07/12 14:25:56;;;;;;;8.07;2.90;;;;;;;29.00;51.99;97415.75;6257407;28;20238;-54
2023/07/12 14:28:59;;;;;;;4.88;2.83;;;;;;;29.14;44.36;97404.97;6256766;28;20266;-52
2023/07/12 14:32:15;;;;;;;3.55;2.53;;;;;;;29.16;45.05;97407.34;6255000;28;20238;-53
2023/07/12 14:35:20;;;;;;;6.95;2.90;;;;;;;29.03;50.25;97404.84;6242884;28;20250;-53